createdAt,value
2018-11-07T00:00:07.836Z,100107.38
2018-11-07T00:02:40.221Z,100110.50
2018-11-07T00:05:09.476Z,100107.48
2018-11-07T00:07:38.060Z,100108.83
2018-11-07T00:10:08.009Z,100104.05
2018-11-07T00:12:36.792Z,100112.82
2018-11-07T00:15:06.015Z,100115.88
2018-11-07T00:17:38.069Z,100120.78
2018-11-07T00:20:09.002Z,100114.27
2018-11-07T00:22:38.284Z,100119.09
2018-11-07T00:25:07.955Z,100120.00
2018-11-07T00:27:36.869Z,100118.29
2018-11-07T00:30:06.715Z,100117.41
2018-11-07T00:32:35.261Z,100122.25
2018-11-07T00:35:03.977Z,100130.98
2018-11-07T00:37:32.408Z,100127.80
2018-11-07T00:40:00.968Z,100130.35
2018-11-07T00:42:29.575Z,100146.41
2018-11-07T00:44:58.181Z,100142.45
2018-11-07T00:47:27.911Z,100156.77
2018-11-07T00:49:56.386Z,100152.33
2018-11-07T00:52:25.018Z,100150.99
2018-11-07T00:54:56.629Z,100152.67
2018-11-07T00:57:25.201Z,100150.86
2018-11-07T00:59:53.818Z,100154.29
2018-11-07T01:02:22.523Z,100158.22
2018-11-07T01:04:55.145Z,100153.38
2018-11-07T01:07:24.087Z,100151.27
2018-11-07T01:09:52.677Z,100153.92
2018-11-07T01:12:21.159Z,100154.08
2018-11-07T01:14:49.791Z,100148.47
2018-11-07T01:17:18.281Z,100153.81
2018-11-07T01:19:47.492Z,100142.55
2018-11-07T01:22:16.305Z,100145.70
2018-11-07T01:24:45.012Z,100150.44
2018-11-07T01:27:13.626Z,100148.19
2018-11-07T01:29:42.080Z,100143.33
2018-11-07T01:32:10.582Z,100145.44
2018-11-07T01:34:39.146Z,100141.02
2018-11-07T01:37:07.684Z,100148.38
2018-11-07T01:39:36.142Z,100143.50
2018-11-07T01:42:04.720Z,100139.50
2018-11-07T01:44:33.242Z,100142.19
2018-11-07T01:47:01.715Z,100141.92
2018-11-07T01:49:30.384Z,100137.58
2018-11-07T01:51:59.651Z,100141.52
2018-11-07T01:54:28.261Z,100135.03
2018-11-07T01:56:56.886Z,100133.72
2018-11-07T01:59:25.299Z,100138.48
2018-11-07T02:01:54.681Z,100135.87
2018-11-07T02:06:58.543Z,100135.09
2018-11-07T02:09:27.128Z,100124.23
2018-11-07T02:11:55.793Z,100124.34
2018-11-07T02:14:24.247Z,100128.83
2018-11-07T02:16:52.757Z,100133.26
2018-11-07T02:19:22.874Z,100125.53
2018-11-07T02:21:51.294Z,100127.34
2018-11-07T02:24:19.779Z,100134.41
2018-11-07T02:26:48.235Z,100136.23
2018-11-07T02:29:16.933Z,100128.37
2018-11-07T02:31:46.664Z,100127.56
2018-11-07T02:34:15.924Z,100125.44
2018-11-07T02:36:44.544Z,100121.05
2018-11-07T02:39:14.255Z,100120.98
2018-11-07T02:41:43.113Z,100115.77
2018-11-07T02:44:12.891Z,100114.50
2018-11-07T02:46:42.168Z,100108.02
2018-11-07T02:49:10.673Z,100101.91
2018-11-07T02:51:39.302Z,100105.39
2018-11-07T02:54:07.717Z,100105.02
2018-11-07T02:56:36.900Z,100101.59
2018-11-07T02:59:07.159Z,100105.11
2018-11-07T03:01:35.717Z,100099.91
2018-11-07T03:04:04.302Z,100100.41
2018-11-07T03:06:33.495Z,100089.05
2018-11-07T03:09:02.544Z,100085.59
2018-11-07T03:11:31.088Z,100087.84
2018-11-07T03:13:59.509Z,100088.75
2018-11-07T03:21:35.483Z,100077.78
2018-11-07T03:24:04.639Z,100069.52
2018-11-07T03:26:33.293Z,100072.13
2018-11-07T03:29:02.657Z,100080.39
2018-11-07T03:31:31.148Z,100073.84
2018-11-07T03:33:59.641Z,100079.55
2018-11-07T03:39:02.706Z,100066.49
2018-11-07T03:41:31.198Z,100057.42
2018-11-07T03:43:59.985Z,100062.69
2018-11-07T03:46:28.797Z,100061.38
2018-11-07T03:48:57.249Z,100061.85
2018-11-07T03:51:29.681Z,100064.41
2018-11-07T03:53:58.166Z,100067.09
2018-11-07T03:56:26.806Z,100058.86
2018-11-07T03:58:56.318Z,100062.81
2018-11-07T04:01:25.001Z,100066.40
2018-11-07T04:03:54.214Z,100074.28
2018-11-07T04:06:22.785Z,100068.73
2018-11-07T04:08:51.302Z,100073.53
2018-11-07T04:11:20.049Z,100073.12
2018-11-07T04:13:48.685Z,100071.88
2018-11-07T04:16:17.309Z,100073.28
2018-11-07T04:18:46.124Z,100081.63
2018-11-07T04:21:15.626Z,100088.61
2018-11-07T04:28:56.010Z,100086.08
2018-11-07T04:31:24.565Z,100080.44
2018-11-07T04:33:53.014Z,100078.31
2018-11-07T04:36:21.699Z,100064.08
2018-11-07T04:38:50.204Z,100077.56
2018-11-07T04:43:52.823Z,100075.03
2018-11-07T04:46:21.457Z,100074.66
2018-11-07T04:48:50.100Z,100077.34
2018-11-07T04:51:18.607Z,100076.95
2018-11-07T04:53:47.340Z,100080.91
2018-11-07T04:56:17.269Z,100073.53
2018-11-07T04:58:45.836Z,100064.02
2018-11-07T05:01:14.459Z,100084.89
2018-11-07T05:03:43.034Z,100087.63
2018-11-07T05:06:12.482Z,100091.46
2018-11-07T05:08:41.047Z,100094.55
2018-11-07T05:11:09.555Z,100080.16
2018-11-07T05:13:38.356Z,100080.59
2018-11-07T05:16:06.881Z,100076.23
2018-11-07T05:18:35.399Z,100075.36
2018-11-07T05:21:03.920Z,100075.36
2018-11-07T05:23:32.489Z,100074.08
2018-11-07T05:26:01.138Z,100076.70
2018-11-07T05:28:32.779Z,100068.44
2018-11-07T05:31:01.393Z,100068.91
2018-11-07T05:33:30.084Z,100063.77
2018-11-07T05:36:00.190Z,100056.75
2018-11-07T05:38:29.837Z,100043.70
2018-11-07T05:40:58.448Z,100044.61
2018-11-07T05:43:26.865Z,100050.73
2018-11-07T05:45:55.505Z,100056.44
2018-11-07T05:48:24.077Z,100066.91
2018-11-07T05:50:53.688Z,100066.91
2018-11-07T05:53:22.151Z,100061.29
2018-11-07T05:55:50.625Z,100046.61
2018-11-07T05:58:21.197Z,100052.57
2018-11-07T06:00:49.706Z,100047.40
2018-11-07T06:03:18.305Z,100047.40
2018-11-07T06:05:46.891Z,100059.58
2018-11-07T06:08:15.514Z,100058.27
2018-11-07T06:10:48.042Z,100063.09
2018-11-07T06:13:16.744Z,100064.83
2018-11-07T06:15:45.296Z,100072.68
2018-11-07T06:18:13.772Z,100067.94
2018-11-07T06:20:42.409Z,100072.77
2018-11-07T06:23:10.877Z,100079.30
2018-11-07T06:25:42.928Z,100081.52
2018-11-07T06:28:11.503Z,100084.10
2018-11-07T06:30:40.694Z,100098.48
2018-11-07T06:33:09.428Z,100095.48
2018-11-07T06:35:37.980Z,100096.88
2018-11-07T06:38:06.529Z,100102.16
2018-11-07T06:40:35.271Z,100106.16
2018-11-07T06:43:03.868Z,100098.79
2018-11-07T06:45:32.646Z,100106.66
2018-11-07T06:48:01.087Z,100107.06
2018-11-07T06:50:29.650Z,100107.56
2018-11-07T06:52:58.269Z,100108.80
2018-11-07T06:55:26.848Z,100112.73
2018-11-07T06:57:55.290Z,100116.19
2018-11-07T07:02:58.561Z,100114.80
2018-11-07T07:05:27.074Z,100113.50
2018-11-07T07:07:55.760Z,100116.49
2018-11-07T07:10:24.436Z,100118.64
2018-11-07T07:12:52.860Z,100119.92
2018-11-07T07:15:21.349Z,100119.84
2018-11-07T07:17:50.085Z,100122.84
2018-11-07T07:20:20.520Z,100124.96
2018-11-07T07:22:50.044Z,100119.23
2018-11-07T07:25:19.041Z,100129.20
2018-11-07T07:30:22.499Z,100134.30
2018-11-07T07:35:26.117Z,100128.55
2018-11-07T07:37:54.651Z,100129.91
2018-11-07T07:40:23.217Z,100141.14
2018-11-07T07:42:52.461Z,100138.52
2018-11-07T07:45:24.522Z,100129.72
2018-11-07T07:47:53.183Z,100130.97
2018-11-07T07:50:21.675Z,100126.09
2018-11-07T07:52:50.424Z,100133.47
2018-11-07T07:55:19.000Z,100133.39
2018-11-07T07:57:47.626Z,100125.48
2018-11-07T08:00:20.249Z,100128.04
2018-11-07T08:02:51.126Z,100133.19
2018-11-07T08:05:19.726Z,100123.50
2018-11-07T08:07:48.512Z,100120.39
2018-11-07T08:12:52.768Z,100105.97
2018-11-07T08:15:21.912Z,100117.44
2018-11-07T08:17:50.560Z,100118.69
2018-11-07T08:20:19.643Z,100109.91
2018-11-07T08:22:48.873Z,100105.83
2018-11-07T08:25:17.403Z,100114.50
2018-11-07T08:27:45.914Z,100114.84
2018-11-07T08:30:16.207Z,100118.73
2018-11-07T08:32:45.362Z,100115.21
2018-11-07T08:35:14.481Z,100119.83
2018-11-07T08:37:43.821Z,100110.16
2018-11-07T08:40:15.683Z,100118.70
2018-11-07T08:45:18.269Z,100113.17
2018-11-07T08:47:48.363Z,100111.67
2018-11-07T08:50:22.814Z,100116.28
2018-11-07T08:52:51.430Z,100119.05
2018-11-07T08:55:22.132Z,100116.13
2018-11-07T08:57:50.629Z,100119.72
2018-11-07T09:00:21.489Z,100124.19
2018-11-07T09:02:50.104Z,100126.86
2018-11-07T09:05:19.550Z,100122.65
2018-11-07T09:07:50.317Z,100118.39
2018-11-07T09:10:20.313Z,100121.56
2018-11-07T09:12:48.856Z,100123.38
2018-11-07T09:15:19.341Z,100122.86
2018-11-07T09:17:48.108Z,100118.00
2018-11-07T09:20:18.665Z,100124.09
2018-11-07T09:22:47.728Z,100123.27
2018-11-07T09:25:16.702Z,100123.67
2018-11-07T09:27:46.124Z,100125.58
2018-11-07T09:30:16.668Z,100118.77
2018-11-07T09:32:45.727Z,100119.69
2018-11-07T09:35:14.863Z,100115.63
2018-11-07T09:37:43.420Z,100117.50
2018-11-07T09:40:14.988Z,100120.09
2018-11-07T09:42:44.119Z,100123.55
2018-11-07T09:45:14.178Z,100130.51
2018-11-07T09:47:43.533Z,100128.36
2018-11-07T09:50:22.079Z,100131.53
2018-11-07T09:52:50.719Z,100130.28
2018-11-07T09:55:20.551Z,100136.78
2018-11-07T09:57:49.875Z,100126.32
2018-11-07T10:00:21.202Z,100128.39
2018-11-07T10:02:49.812Z,100133.66
2018-11-07T10:05:19.932Z,100134.44
2018-11-07T10:07:48.730Z,100132.67
2018-11-07T10:10:18.605Z,100130.08
2018-11-07T10:12:47.557Z,100123.52
2018-11-07T10:15:16.397Z,100120.38
2018-11-07T10:17:45.092Z,100119.81
2018-11-07T10:20:20.370Z,100125.43
2018-11-07T10:22:49.385Z,100116.66
2018-11-07T10:25:18.569Z,100111.87
2018-11-07T10:27:47.532Z,100116.20
2018-11-07T10:30:17.539Z,100117.48
2018-11-07T10:32:47.135Z,100107.41
2018-11-07T10:35:15.601Z,100112.39
2018-11-07T10:37:44.507Z,100120.22
2018-11-07T10:40:15.754Z,100113.52
2018-11-07T10:42:45.586Z,100108.19
2018-11-07T10:45:15.232Z,100107.52
2018-11-07T10:47:45.002Z,100111.53
2018-11-07T10:50:18.339Z,100099.45
2018-11-07T10:52:47.478Z,100098.16
2018-11-07T10:55:17.594Z,100099.58
2018-11-07T10:57:46.482Z,100089.95
2018-11-07T11:00:21.212Z,100085.33
2018-11-07T11:02:55.377Z,100078.24
2018-11-07T11:05:23.890Z,100080.55
2018-11-07T11:07:52.388Z,100078.86
2018-11-07T11:10:21.333Z,100079.66
2018-11-07T11:12:50.240Z,100086.08
2018-11-07T11:15:18.652Z,100080.74
2018-11-07T11:17:47.082Z,100087.38
2018-11-07T11:20:15.740Z,100077.92
2018-11-07T11:25:20.570Z,100079.72
2018-11-07T11:27:49.057Z,100084.34
2018-11-07T11:30:19.093Z,100082.41
2018-11-07T11:32:47.735Z,100081.77
2018-11-07T11:35:16.333Z,100081.14
2018-11-07T11:37:44.949Z,100085.86
2018-11-07T11:40:14.815Z,100091.93
2018-11-07T11:42:44.474Z,100090.76
2018-11-07T11:45:15.195Z,100086.48
2018-11-07T11:47:44.237Z,100087.33
2018-11-07T11:50:15.021Z,100086.95
2018-11-07T11:52:44.812Z,100078.31
2018-11-07T11:55:13.306Z,100084.21
2018-11-07T11:57:42.371Z,100086.08
2018-11-07T12:00:13.186Z,100087.56
2018-11-07T12:02:41.642Z,100085.69
2018-11-07T12:05:12.990Z,100088.39
2018-11-07T12:07:41.988Z,100088.88
2018-11-07T12:10:28.655Z,100082.89
2018-11-07T12:13:03.739Z,100079.48
2018-11-07T12:15:32.165Z,100074.09
2018-11-07T12:18:00.568Z,100082.50
2018-11-07T12:20:29.077Z,100076.97
2018-11-07T12:22:57.621Z,100080.09
2018-11-07T12:25:26.201Z,100081.41
2018-11-07T12:27:54.929Z,100075.42
2018-11-07T12:30:25.490Z,100072.33
2018-11-07T12:32:54.812Z,100078.38
2018-11-07T12:35:23.510Z,100075.97
2018-11-07T12:37:51.960Z,100070.67
2018-11-07T12:40:20.943Z,100071.02
2018-11-07T12:42:49.679Z,100076.06
2018-11-07T12:45:18.306Z,100077.70
2018-11-07T12:47:47.129Z,100081.35
2018-11-07T12:50:17.625Z,100083.71
2018-11-07T12:52:46.738Z,100082.14
2018-11-07T12:55:15.601Z,100080.17
2018-11-07T12:57:44.073Z,100089.43
2018-11-07T13:00:17.021Z,100092.53
2018-11-07T13:02:45.690Z,100099.35
2018-11-07T13:05:15.572Z,100098.70
2018-11-07T13:07:44.978Z,100105.56
2018-11-07T13:10:14.755Z,100108.49
2018-11-07T13:12:44.058Z,100114.32
2018-11-07T13:15:13.197Z,100106.01
2018-11-07T13:17:41.607Z,100117.18
2018-11-07T13:20:14.536Z,100120.42
2018-11-07T13:22:43.922Z,100118.87
2018-11-07T13:25:13.355Z,100131.91
2018-11-07T13:27:41.819Z,100129.42
2018-11-07T13:30:12.932Z,100137.94
2018-11-07T13:32:41.851Z,100138.94
2018-11-07T13:35:11.301Z,100133.27
2018-11-07T13:37:40.652Z,100141.63
2018-11-07T13:40:12.983Z,100136.77
2018-11-07T13:42:41.735Z,100144.70
2018-11-07T13:45:13.678Z,100139.48
2018-11-07T13:47:43.104Z,100146.52
2018-11-07T13:50:12.468Z,100141.40
2018-11-07T13:52:47.688Z,100144.19
2018-11-07T13:55:17.026Z,100147.04
2018-11-07T13:57:45.926Z,100146.70
2018-11-07T14:00:16.644Z,100148.56
2018-11-07T14:02:45.807Z,100155.64
2018-11-07T14:05:14.350Z,100153.52
2018-11-07T14:07:44.681Z,100163.29
2018-11-07T14:10:22.611Z,100160.41
2018-11-07T14:12:51.495Z,100159.69
2018-11-07T14:15:20.142Z,100161.94
2018-11-07T14:17:48.623Z,100162.44
2018-11-07T14:20:17.153Z,100170.02
2018-11-07T14:22:46.026Z,100166.66
2018-11-07T14:25:14.782Z,100168.52
2018-11-07T14:27:46.944Z,100170.77
2018-11-07T14:30:17.606Z,100167.73
2018-11-07T14:32:52.736Z,100172.67
2018-11-07T14:35:21.516Z,100181.07
2018-11-07T14:37:50.673Z,100179.80
2018-11-07T14:40:22.084Z,100178.09
2018-11-07T14:45:25.889Z,100182.73
2018-11-07T14:48:01.426Z,100182.84
2018-11-07T14:50:30.072Z,100188.32
2018-11-07T14:52:59.272Z,100198.56
2018-11-07T14:55:27.668Z,100195.73
2018-11-07T14:57:56.322Z,100201.59
2018-11-07T15:00:24.750Z,100203.05
2018-11-07T15:02:53.537Z,100207.79
2018-11-07T15:05:22.112Z,100214.23
2018-11-07T15:07:50.541Z,100214.03
2018-11-07T15:10:19.108Z,100218.59
2018-11-07T15:12:47.569Z,100219.18
2018-11-07T15:15:17.377Z,100219.23
2018-11-07T15:17:45.787Z,100227.80
2018-11-07T15:20:15.407Z,100234.09
2018-11-07T15:22:44.151Z,100222.56
2018-11-07T15:27:49.678Z,100229.41
2018-11-07T15:30:18.581Z,100230.83
2018-11-07T15:32:47.345Z,100235.31
2018-11-07T15:35:15.877Z,100232.77
2018-11-07T15:37:44.411Z,100231.75
2018-11-07T15:40:14.361Z,100231.75
2018-11-07T15:42:43.215Z,100233.16
2018-11-07T15:45:13.971Z,100234.91
2018-11-07T15:47:42.997Z,100241.11
2018-11-07T15:50:16.867Z,100233.73
2018-11-07T15:52:46.205Z,100242.55
2018-11-07T15:55:14.909Z,100242.16
2018-11-07T15:57:43.352Z,100248.74
2018-11-07T16:00:19.605Z,100248.76
2018-11-07T16:02:48.192Z,100243.63
2018-11-07T16:05:17.269Z,100247.23
2018-11-07T16:07:45.877Z,100249.47
2018-11-07T16:10:15.212Z,100248.20
2018-11-07T16:12:44.995Z,100253.06
2018-11-07T16:15:18.799Z,100248.41
2018-11-07T16:17:48.007Z,100246.34
2018-11-07T16:20:19.685Z,100255.16
2018-11-07T16:22:49.001Z,100250.00
2018-11-07T16:25:17.676Z,100261.05
2018-11-07T16:27:46.436Z,100271.71
2018-11-07T16:30:16.464Z,100275.21
2018-11-07T16:32:44.929Z,100283.03
2018-11-07T16:35:13.939Z,100284.87
2018-11-07T16:37:42.840Z,100298.55
2018-11-07T16:40:15.734Z,100300.71
2018-11-07T16:42:44.698Z,100293.34
2018-11-07T16:45:14.205Z,100288.59
2018-11-07T16:47:42.935Z,100291.63
2018-11-07T16:50:12.812Z,100300.00
2018-11-07T16:52:41.459Z,100300.84
2018-11-07T16:55:09.837Z,100318.82
2018-11-07T16:57:38.798Z,100301.76
2018-11-07T17:00:12.320Z,100310.05
2018-11-07T17:02:41.063Z,100307.47
2018-11-07T17:05:10.074Z,100314.92
2018-11-07T17:07:38.837Z,100314.05
2018-11-07T17:10:08.445Z,100311.84
2018-11-07T17:12:37.225Z,100332.47
2018-11-07T17:15:07.129Z,100312.33
2018-11-07T17:17:35.926Z,100310.70
2018-11-07T17:20:04.404Z,100323.46
2018-11-07T17:22:39.588Z,100326.09
2018-11-07T17:25:10.076Z,100334.91
2018-11-07T17:27:38.999Z,100348.11
2018-11-07T17:30:08.772Z,100337.62
2018-11-07T17:32:37.343Z,100344.77
2018-11-07T17:37:35.361Z,100361.25
2018-11-07T17:40:05.654Z,100357.89
2018-11-07T17:42:34.161Z,100361.92
2018-11-07T17:45:02.629Z,100363.23
2018-11-07T17:47:31.278Z,100372.13
2018-11-07T17:49:59.866Z,100379.27
2018-11-07T17:52:28.480Z,100381.94
2018-11-07T17:54:56.919Z,100386.80
2018-11-07T17:57:25.650Z,100394.69
2018-11-07T17:59:54.250Z,100383.37
2018-11-07T18:02:22.925Z,100395.72
2018-11-07T18:04:51.479Z,100399.70
2018-11-07T18:07:20.041Z,100400.63
2018-11-07T18:09:48.574Z,100398.15
2018-11-07T18:12:17.006Z,100397.86
2018-11-07T18:14:46.550Z,100399.17
2018-11-07T18:17:15.262Z,100407.98
2018-11-07T18:19:43.823Z,100416.39
2018-11-07T18:22:12.261Z,100409.45
2018-11-07T18:24:40.683Z,100411.16
2018-11-07T18:27:09.112Z,100420.81
2018-11-07T18:29:37.765Z,100422.72
2018-11-07T18:32:06.267Z,100430.20
2018-11-07T18:34:36.586Z,100428.05
2018-11-07T18:37:06.064Z,100427.72
2018-11-07T18:39:35.539Z,100432.98
2018-11-07T18:42:04.176Z,100436.05
2018-11-07T18:44:32.739Z,100429.87
2018-11-07T18:47:01.328Z,100432.58
2018-11-07T18:49:29.872Z,100439.23
2018-11-07T18:51:58.339Z,100441.97
2018-11-07T18:54:26.813Z,100435.91
2018-11-07T18:56:55.655Z,100436.05
2018-11-07T18:59:24.070Z,100442.22
2018-11-07T19:01:56.225Z,100435.36
2018-11-07T19:04:24.809Z,100442.77
2018-11-07T19:09:27.921Z,100448.10
2018-11-07T19:11:56.337Z,100449.05
2018-11-07T19:14:24.858Z,100456.53
2018-11-07T19:16:53.396Z,100465.33
2018-11-07T19:19:21.774Z,100477.27
2018-11-07T19:21:50.233Z,100473.06
2018-11-07T19:24:18.745Z,100474.01
2018-11-07T19:26:47.281Z,100479.77
2018-11-07T19:29:16.153Z,100478.49
2018-11-07T19:34:18.984Z,100482.97
2018-11-07T19:36:47.561Z,100479.14
2018-11-07T19:39:21.224Z,100480.92
2018-11-07T19:44:24.197Z,100492.38
2018-11-07T19:46:56.225Z,100500.70
2018-11-07T19:49:24.604Z,100504.70
2018-11-07T19:51:53.163Z,100506.86
2018-11-07T19:54:21.695Z,100506.42
2018-11-07T19:56:50.318Z,100510.37
2018-11-07T19:59:18.883Z,100516.53
2018-11-07T20:01:47.458Z,100519.56
2018-11-07T20:04:16.373Z,100517.78
2018-11-07T20:06:45.037Z,100516.94
2018-11-07T20:09:13.950Z,100522.13
2018-11-07T20:11:42.533Z,100518.66
2018-11-07T20:16:45.235Z,100529.67
2018-11-07T20:19:13.711Z,100528.36
2018-11-07T20:21:42.467Z,100527.48
2018-11-07T20:24:11.056Z,100527.55
2018-11-07T20:26:39.535Z,100534.95
2018-11-07T20:29:08.121Z,100542.44
2018-11-07T20:31:36.791Z,100545.47
2018-11-07T20:34:05.493Z,100545.97
2018-11-07T20:36:34.014Z,100548.59
2018-11-07T20:39:02.622Z,100546.38
2018-11-07T20:44:05.646Z,100540.81
2018-11-07T20:46:34.336Z,100544.28
2018-11-07T20:49:02.841Z,100557.39
2018-11-07T20:54:05.881Z,100553.08
2018-11-07T20:56:35.793Z,100561.43
2018-11-07T20:59:04.369Z,100580.29
2018-11-07T21:01:33.016Z,100581.70
2018-11-07T21:04:01.819Z,100586.14
2018-11-07T21:06:30.422Z,100598.46
2018-11-07T21:08:59.014Z,100595.45
2018-11-07T21:11:27.514Z,100595.93
2018-11-07T21:13:56.092Z,100597.27
2018-11-07T21:16:24.905Z,100594.65
2018-11-07T21:18:53.793Z,100600.81
2018-11-07T21:21:22.333Z,100601.31
2018-11-07T21:23:51.053Z,100607.91
2018-11-07T21:28:53.827Z,100607.62
2018-11-07T21:31:22.381Z,100612.47
2018-11-07T21:33:50.989Z,100607.64
2018-11-07T21:38:53.893Z,100617.42
2018-11-07T21:41:22.476Z,100616.55
2018-11-07T21:43:51.180Z,100624.48
2018-11-07T21:46:19.594Z,100630.23
2018-11-07T21:51:22.659Z,100642.98
2018-11-07T21:53:51.271Z,100650.89
2018-11-07T21:56:19.757Z,100650.08
2018-11-07T22:01:22.314Z,100658.86
2018-11-07T22:03:50.886Z,100655.36
2018-11-07T22:06:19.593Z,100650.60
2018-11-07T22:08:48.152Z,100651.97
2018-11-07T22:11:16.769Z,100653.31
2018-11-07T22:13:45.319Z,100654.24
2018-11-07T22:16:14.582Z,100657.83
2018-11-07T22:18:43.297Z,100662.12
2018-11-07T22:21:11.913Z,100654.24
2018-11-07T22:23:40.585Z,100659.98
2018-11-07T22:26:09.088Z,100661.30
2018-11-07T22:28:37.609Z,100673.09
2018-11-07T22:31:06.404Z,100676.56
2018-11-07T22:33:35.122Z,100667.75
2018-11-07T22:36:03.609Z,100673.41
2018-11-07T22:38:32.077Z,100674.31
2018-11-07T22:41:00.764Z,100680.47
2018-11-07T22:43:29.310Z,100683.18
2018-11-07T22:45:57.945Z,100676.26
2018-11-07T22:48:26.618Z,100678.56
2018-11-07T22:53:29.123Z,100677.87
2018-11-07T22:55:57.549Z,100676.21
2018-11-07T22:58:25.997Z,100669.27
2018-11-07T23:01:02.541Z,100668.88
2018-11-07T23:03:31.769Z,100672.02
2018-11-07T23:06:00.124Z,100672.92
2018-11-07T23:08:28.580Z,100679.97
2018-11-07T23:10:56.986Z,100689.62
2018-11-07T23:13:25.569Z,100696.62
2018-11-07T23:15:54.113Z,100701.91
2018-11-07T23:18:22.721Z,100712.43
2018-11-07T23:20:51.147Z,100712.48
2018-11-07T23:23:19.708Z,100723.03
2018-11-07T23:25:48.335Z,100720.38
2018-11-07T23:28:17.034Z,100721.59
2018-11-07T23:30:45.511Z,100733.74
2018-11-07T23:33:14.075Z,100733.64
2018-11-07T23:35:42.606Z,100737.50
2018-11-07T23:38:12.090Z,100730.45
2018-11-07T23:40:41.683Z,100737.39
2018-11-07T23:43:10.150Z,100737.81
2018-11-07T23:45:38.833Z,100744.78
2018-11-07T23:48:12.683Z,100752.22
2018-11-07T23:50:41.148Z,100752.67
2018-11-07T23:53:09.619Z,100761.86
2018-11-07T23:55:38.097Z,100772.36
2018-11-07T23:58:06.678Z,100766.76
